sensor_id;sensor_type;location;lat;lon;timestamp;temperature;humidity
72905;DHT22;61048;52.162;4.516;2023-04-01T00:01:30;16.80;62.80
72905;DHT22;61048;52.162;4.516;2023-04-01T00:03:58;16.80;62.70
72905;DHT22;61048;52.162;4.516;2023-04-01T00:06:27;16.80;62.70
72905;DHT22;61048;52.162;4.516;2023-04-01T00:08:55;16.90;62.70
72905;DHT22;61048;52.162;4.516;2023-04-01T00:11:22;16.90;62.70
72905;DHT22;61048;52.162;4.516;2023-04-01T00:13:49;16.80;62.70
72905;DHT22;61048;52.162;4.516;2023-04-01T00:16:16;16.80;62.60
72905;DHT22;61048;52.162;4.516;2023-04-01T00:18:43;16.80;62.70
72905;DHT22;61048;52.162;4.516;2023-04-01T00:21:11;16.80;62.70
72905;DHT22;61048;52.162;4.516;2023-04-01T00:23:38;16.80;62.70
72905;DHT22;61048;52.162;4.516;2023-04-01T00:26:05;16.80;62.70
72905;DHT22;61048;52.162;4.516;2023-04-01T00:28:34;16.80;62.70
72905;DHT22;61048;52.162;4.516;2023-04-01T00:31:04;16.80;62.60
72905;DHT22;61048;52.162;4.516;2023-04-01T00:33:31;16.80;62.70
72905;DHT22;61048;52.162;4.516;2023-04-01T00:36:06;16.80;62.50
72905;DHT22;61048;52.162;4.516;2023-04-01T00:38:35;16.80;62.60
72905;DHT22;61048;52.162;4.516;2023-04-01T00:41:02;16.80;62.70
72905;DHT22;61048;52.162;4.516;2023-04-01T00:43:30;16.80;62.60
72905;DHT22;61048;52.162;4.516;2023-04-01T00:45:57;16.80;62.50
72905;DHT22;61048;52.162;4.516;2023-04-01T00:48:27;16.80;62.60
72905;DHT22;61048;52.162;4.516;2023-04-01T00:50:59;16.80;62.60
72905;DHT22;61048;52.162;4.516;2023-04-01T00:53:28;16.80;62.60
72905;DHT22;61048;52.162;4.516;2023-04-01T00:56:03;16.80;62.50
72905;DHT22;61048;52.162;4.516;2023-04-01T00:58:33;16.80;62.40
72905;DHT22;61048;52.162;4.516;2023-04-01T01:01:02;16.80;62.50
72905;DHT22;61048;52.162;4.516;2023-04-01T01:03:29;16.80;62.50
72905;DHT22;61048;52.162;4.516;2023-04-01T01:06:24;16.80;62.50
72905;DHT22;61048;52.162;4.516;2023-04-01T01:09:12;16.80;62.50
72905;DHT22;61048;52.162;4.516;2023-04-01T01:11:46;16.80;62.50
72905;DHT22;61048;52.162;4.516;2023-04-01T01:14:25;16.80;62.40
72905;DHT22;61048;52.162;4.516;2023-04-01T01:16:59;16.80;62.40
72905;DHT22;61048;52.162;4.516;2023-04-01T01:25:33;16.80;62.40
72905;DHT22;61048;52.162;4.516;2023-04-01T01:28:20;16.80;62.50
72905;DHT22;61048;52.162;4.516;2023-04-01T01:30:57;16.80;62.60
72905;DHT22;61048;52.162;4.516;2023-04-01T01:33:39;16.80;62.50
72905;DHT22;61048;52.162;4.516;2023-04-01T01:36:12;16.80;62.70
72905;DHT22;61048;52.162;4.516;2023-04-01T01:38:40;16.80;62.70
72905;DHT22;61048;52.162;4.516;2023-04-01T01:41:08;16.80;62.80
72905;DHT22;61048;52.162;4.516;2023-04-01T01:43:39;16.80;62.70
72905;DHT22;61048;52.162;4.516;2023-04-01T01:46:10;16.80;62.80
72905;DHT22;61048;52.162;4.516;2023-04-01T01:48:39;16.80;62.70
72905;DHT22;61048;52.162;4.516;2023-04-01T01:51:08;16.80;62.80
72905;DHT22;61048;52.162;4.516;2023-04-01T01:53:36;16.80;62.70
72905;DHT22;61048;52.162;4.516;2023-04-01T01:56:03;16.80;62.70
72905;DHT22;61048;52.162;4.516;2023-04-01T01:58:32;16.80;62.70
72905;DHT22;61048;52.162;4.516;2023-04-01T02:01:07;16.80;62.70
72905;DHT22;61048;52.162;4.516;2023-04-01T02:03:39;16.80;62.80
72905;DHT22;61048;52.162;4.516;2023-04-01T02:06:10;16.80;62.90
72905;DHT22;61048;52.162;4.516;2023-04-01T02:08:41;16.80;62.90
72905;DHT22;61048;52.162;4.516;2023-04-01T02:11:09;16.70;63.00
72905;DHT22;61048;52.162;4.516;2023-04-01T02:13:40;16.80;63.30
72905;DHT22;61048;52.162;4.516;2023-04-01T02:16:13;16.80;63.20
72905;DHT22;61048;52.162;4.516;2023-04-01T02:18:43;16.70;63.20
72905;DHT22;61048;52.162;4.516;2023-04-01T02:21:10;16.80;63.10
72905;DHT22;61048;52.162;4.516;2023-04-01T02:23:40;16.70;63.20
72905;DHT22;61048;52.162;4.516;2023-04-01T02:26:08;16.70;63.20
72905;DHT22;61048;52.162;4.516;2023-04-01T02:28:38;16.70;63.30
72905;DHT22;61048;52.162;4.516;2023-04-01T02:31:06;16.70;63.30
72905;DHT22;61048;52.162;4.516;2023-04-01T02:33:34;16.70;63.30
72905;DHT22;61048;52.162;4.516;2023-04-01T02:36:01;16.70;63.30
72905;DHT22;61048;52.162;4.516;2023-04-01T02:38:28;16.70;63.30
72905;DHT22;61048;52.162;4.516;2023-04-01T02:41:00;16.70;63.40
72905;DHT22;61048;52.162;4.516;2023-04-01T02:43:27;16.70;63.40
72905;DHT22;61048;52.162;4.516;2023-04-01T02:45:54;16.70;63.40
72905;DHT22;61048;52.162;4.516;2023-04-01T02:48:21;16.70;63.50
72905;DHT22;61048;52.162;4.516;2023-04-01T02:50:48;16.70;63.50
72905;DHT22;61048;52.162;4.516;2023-04-01T02:53:16;16.70;63.60
72905;DHT22;61048;52.162;4.516;2023-04-01T02:55:43;16.70;63.50
72905;DHT22;61048;52.162;4.516;2023-04-01T02:58:11;16.70;63.60
72905;DHT22;61048;52.162;4.516;2023-04-01T03:00:38;16.70;63.50
72905;DHT22;61048;52.162;4.516;2023-04-01T03:03:05;16.70;63.70
72905;DHT22;61048;52.162;4.516;2023-04-01T03:05:32;16.70;63.60
72905;DHT22;61048;52.162;4.516;2023-04-01T03:07:59;16.70;63.80
72905;DHT22;61048;52.162;4.516;2023-04-01T03:10:26;16.70;63.70
72905;DHT22;61048;52.162;4.516;2023-04-01T03:12:53;16.70;63.70
72905;DHT22;61048;52.162;4.516;2023-04-01T03:15:22;16.70;63.80
72905;DHT22;61048;52.162;4.516;2023-04-01T03:17:48;16.60;63.80
72905;DHT22;61048;52.162;4.516;2023-04-01T03:20:16;16.60;63.80
72905;DHT22;61048;52.162;4.516;2023-04-01T03:22:43;16.60;64.00
72905;DHT22;61048;52.162;4.516;2023-04-01T03:25:11;16.60;64.20
72905;DHT22;61048;52.162;4.516;2023-04-01T03:27:38;16.60;64.20
72905;DHT22;61048;52.162;4.516;2023-04-01T03:30:07;16.60;64.20
72905;DHT22;61048;52.162;4.516;2023-04-01T03:32:36;16.60;64.10
72905;DHT22;61048;52.162;4.516;2023-04-01T03:35:03;16.60;64.10
72905;DHT22;61048;52.162;4.516;2023-04-01T03:37:31;16.60;64.10
72905;DHT22;61048;52.162;4.516;2023-04-01T03:39:58;16.60;64.10
72905;DHT22;61048;52.162;4.516;2023-04-01T03:42:24;16.60;64.30
72905;DHT22;61048;52.162;4.516;2023-04-01T03:44:52;16.60;64.20
72905;DHT22;61048;52.162;4.516;2023-04-01T03:47:19;16.60;64.20
72905;DHT22;61048;52.162;4.516;2023-04-01T03:49:47;16.60;64.30
72905;DHT22;61048;52.162;4.516;2023-04-01T03:52:14;16.60;64.30
72905;DHT22;61048;52.162;4.516;2023-04-01T03:54:41;16.60;64.40
72905;DHT22;61048;52.162;4.516;2023-04-01T03:57:07;16.60;64.60
72905;DHT22;61048;52.162;4.516;2023-04-01T03:59:34;16.60;64.50
72905;DHT22;61048;52.162;4.516;2023-04-01T04:02:01;16.60;64.50
72905;DHT22;61048;52.162;4.516;2023-04-01T04:04:28;16.60;64.70
72905;DHT22;61048;52.162;4.516;2023-04-01T04:06:56;16.60;64.50
72905;DHT22;61048;52.162;4.516;2023-04-01T04:09:23;16.60;64.50
72905;DHT22;61048;52.162;4.516;2023-04-01T04:11:50;16.60;64.50
72905;DHT22;61048;52.162;4.516;2023-04-01T04:14:17;16.60;64.40
72905;DHT22;61048;52.162;4.516;2023-04-01T04:16:44;16.60;64.30
72905;DHT22;61048;52.162;4.516;2023-04-01T04:19:11;16.60;64.40
72905;DHT22;61048;52.162;4.516;2023-04-01T04:21:39;16.60;64.40
72905;DHT22;61048;52.162;4.516;2023-04-01T04:24:08;16.60;64.30
72905;DHT22;61048;52.162;4.516;2023-04-01T04:26:35;16.60;64.50
72905;DHT22;61048;52.162;4.516;2023-04-01T04:29:02;16.60;64.30
72905;DHT22;61048;52.162;4.516;2023-04-01T04:31:29;16.60;64.40
72905;DHT22;61048;52.162;4.516;2023-04-01T04:33:58;16.60;64.40
72905;DHT22;61048;52.162;4.516;2023-04-01T04:36:25;16.60;64.30
72905;DHT22;61048;52.162;4.516;2023-04-01T04:38:52;16.60;64.30
72905;DHT22;61048;52.162;4.516;2023-04-01T04:41:20;16.60;64.30
72905;DHT22;61048;52.162;4.516;2023-04-01T04:43:51;16.60;64.30
72905;DHT22;61048;52.162;4.516;2023-04-01T04:46:19;16.60;64.30
72905;DHT22;61048;52.162;4.516;2023-04-01T04:48:46;16.60;64.30
72905;DHT22;61048;52.162;4.516;2023-04-01T04:51:14;16.60;64.30
72905;DHT22;61048;52.162;4.516;2023-04-01T04:53:42;16.50;64.30
72905;DHT22;61048;52.162;4.516;2023-04-01T04:56:09;16.60;64.20
72905;DHT22;61048;52.162;4.516;2023-04-01T04:58:38;16.50;64.20
72905;DHT22;61048;52.162;4.516;2023-04-01T05:01:07;16.50;64.10
72905;DHT22;61048;52.162;4.516;2023-04-01T05:03:34;16.50;64.20
72905;DHT22;61048;52.162;4.516;2023-04-01T05:06:00;16.50;64.20
72905;DHT22;61048;52.162;4.516;2023-04-01T05:08:27;16.50;64.30
72905;DHT22;61048;52.162;4.516;2023-04-01T05:10:54;16.50;64.20
72905;DHT22;61048;52.162;4.516;2023-04-01T05:13:21;16.50;64.30
72905;DHT22;61048;52.162;4.516;2023-04-01T05:15:50;16.50;64.10
72905;DHT22;61048;52.162;4.516;2023-04-01T05:18:17;16.50;64.10
72905;DHT22;61048;52.162;4.516;2023-04-01T05:20:48;16.50;64.20
72905;DHT22;61048;52.162;4.516;2023-04-01T05:23:15;16.50;64.20
72905;DHT22;61048;52.162;4.516;2023-04-01T05:25:42;16.50;64.10
72905;DHT22;61048;52.162;4.516;2023-04-01T05:28:09;16.50;64.20
72905;DHT22;61048;52.162;4.516;2023-04-01T05:30:36;16.50;64.30
72905;DHT22;61048;52.162;4.516;2023-04-01T05:33:04;16.50;64.20
72905;DHT22;61048;52.162;4.516;2023-04-01T05:35:31;16.50;64.30
72905;DHT22;61048;52.162;4.516;2023-04-01T05:37:58;16.50;64.20
72905;DHT22;61048;52.162;4.516;2023-04-01T05:40:25;16.50;64.20
72905;DHT22;61048;52.162;4.516;2023-04-01T05:42:51;16.50;64.10
72905;DHT22;61048;52.162;4.516;2023-04-01T05:45:18;16.50;64.10
72905;DHT22;61048;52.162;4.516;2023-04-01T05:47:45;16.50;64.20
72905;DHT22;61048;52.162;4.516;2023-04-01T05:50:14;16.50;64.30
72905;DHT22;61048;52.162;4.516;2023-04-01T05:52:41;16.50;64.20
72905;DHT22;61048;52.162;4.516;2023-04-01T05:55:08;16.50;64.10
72905;DHT22;61048;52.162;4.516;2023-04-01T05:57:35;16.50;64.10
72905;DHT22;61048;52.162;4.516;2023-04-01T06:00:03;16.50;64.20
72905;DHT22;61048;52.162;4.516;2023-04-01T06:02:30;16.50;64.10
72905;DHT22;61048;52.162;4.516;2023-04-01T06:05:03;16.50;64.30
72905;DHT22;61048;52.162;4.516;2023-04-01T06:07:37;16.50;64.10
72905;DHT22;61048;52.162;4.516;2023-04-01T06:10:12;16.50;64.10
72905;DHT22;61048;52.162;4.516;2023-04-01T06:12:45;16.50;64.10
72905;DHT22;61048;52.162;4.516;2023-04-01T06:15:21;16.50;64.10
72905;DHT22;61048;52.162;4.516;2023-04-01T06:18:02;16.50;64.10
72905;DHT22;61048;52.162;4.516;2023-04-01T06:20:39;16.50;64.20
72905;DHT22;61048;52.162;4.516;2023-04-01T06:23:23;16.50;64.20
72905;DHT22;61048;52.162;4.516;2023-04-01T06:26:17;16.50;64.30
72905;DHT22;61048;52.162;4.516;2023-04-01T06:29:19;16.50;64.20
72905;DHT22;61048;52.162;4.516;2023-04-01T06:31:58;16.50;64.50
72905;DHT22;61048;52.162;4.516;2023-04-01T06:34:42;16.60;64.40
72905;DHT22;61048;52.162;4.516;2023-04-01T06:37:27;16.60;64.40
72905;DHT22;61048;52.162;4.516;2023-04-01T06:40:12;16.60;64.30
72905;DHT22;61048;52.162;4.516;2023-04-01T06:42:50;16.60;64.40
72905;DHT22;61048;52.162;4.516;2023-04-01T06:45:31;16.60;64.40
72905;DHT22;61048;52.162;4.516;2023-04-01T06:48:18;16.60;64.40
72905;DHT22;61048;52.162;4.516;2023-04-01T06:50:54;16.60;64.30
72905;DHT22;61048;52.162;4.516;2023-04-01T06:53:31;16.60;64.50
72905;DHT22;61048;52.162;4.516;2023-04-01T06:56:03;16.60;64.40
72905;DHT22;61048;52.162;4.516;2023-04-01T06:58:37;16.60;64.30
72905;DHT22;61048;52.162;4.516;2023-04-01T07:01:08;16.60;64.30
72905;DHT22;61048;52.162;4.516;2023-04-01T07:03:40;16.60;64.20
72905;DHT22;61048;52.162;4.516;2023-04-01T07:06:11;16.60;64.30
72905;DHT22;61048;52.162;4.516;2023-04-01T07:08:41;16.60;64.20
72905;DHT22;61048;52.162;4.516;2023-04-01T07:11:13;16.70;64.10
72905;DHT22;61048;52.162;4.516;2023-04-01T07:13:49;16.70;64.20
72905;DHT22;61048;52.162;4.516;2023-04-01T07:16:20;16.70;64.10
72905;DHT22;61048;52.162;4.516;2023-04-01T07:18:53;16.70;64.20
72905;DHT22;61048;52.162;4.516;2023-04-01T07:21:26;16.70;64.10
72905;DHT22;61048;52.162;4.516;2023-04-01T07:23:56;16.70;64.20
72905;DHT22;61048;52.162;4.516;2023-04-01T07:26:26;16.70;64.10
72905;DHT22;61048;52.162;4.516;2023-04-01T07:28:53;16.70;64.20
72905;DHT22;61048;52.162;4.516;2023-04-01T07:31:33;16.70;64.20
72905;DHT22;61048;52.162;4.516;2023-04-01T07:34:10;16.70;64.30
72905;DHT22;61048;52.162;4.516;2023-04-01T07:36:42;16.70;64.30
72905;DHT22;61048;52.162;4.516;2023-04-01T07:39:21;16.70;64.30
72905;DHT22;61048;52.162;4.516;2023-04-01T07:41:57;16.70;64.30
72905;DHT22;61048;52.162;4.516;2023-04-01T07:44:34;16.70;64.30
72905;DHT22;61048;52.162;4.516;2023-04-01T07:47:23;16.70;64.50
72905;DHT22;61048;52.162;4.516;2023-04-01T07:49:59;16.70;64.30
72905;DHT22;61048;52.162;4.516;2023-04-01T07:52:33;16.80;64.50
72905;DHT22;61048;52.162;4.516;2023-04-01T07:55:06;16.80;64.20
72905;DHT22;61048;52.162;4.516;2023-04-01T07:57:43;16.70;64.30
72905;DHT22;61048;52.162;4.516;2023-04-01T08:00:19;16.80;64.30
72905;DHT22;61048;52.162;4.516;2023-04-01T08:03:12;16.70;64.20
72905;DHT22;61048;52.162;4.516;2023-04-01T08:05:47;16.70;64.30
72905;DHT22;61048;52.162;4.516;2023-04-01T08:08:21;16.80;64.30
72905;DHT22;61048;52.162;4.516;2023-04-01T08:10:53;16.80;64.40
72905;DHT22;61048;52.162;4.516;2023-04-01T08:13:29;16.80;64.40
72905;DHT22;61048;52.162;4.516;2023-04-01T08:16:06;16.80;64.30
72905;DHT22;61048;52.162;4.516;2023-04-01T08:18:41;16.80;64.30
72905;DHT22;61048;52.162;4.516;2023-04-01T08:21:14;16.80;64.30
72905;DHT22;61048;52.162;4.516;2023-04-01T08:23:45;16.80;64.30
72905;DHT22;61048;52.162;4.516;2023-04-01T08:26:18;16.80;64.30
72905;DHT22;61048;52.162;4.516;2023-04-01T08:28:52;16.80;64.20
72905;DHT22;61048;52.162;4.516;2023-04-01T08:31:26;16.80;64.10
72905;DHT22;61048;52.162;4.516;2023-04-01T08:33:56;16.80;64.20
72905;DHT22;61048;52.162;4.516;2023-04-01T08:36:26;16.80;64.00
72905;DHT22;61048;52.162;4.516;2023-04-01T08:38:57;16.80;64.00
72905;DHT22;61048;52.162;4.516;2023-04-01T08:41:42;16.80;64.10
72905;DHT22;61048;52.162;4.516;2023-04-01T08:44:33;16.80;64.00
72905;DHT22;61048;52.162;4.516;2023-04-01T08:47:20;16.80;64.10
72905;DHT22;61048;52.162;4.516;2023-04-01T08:50:16;16.80;64.00
72905;DHT22;61048;52.162;4.516;2023-04-01T08:52:51;16.80;63.90
72905;DHT22;61048;52.162;4.516;2023-04-01T08:55:37;16.80;63.90
72905;DHT22;61048;52.162;4.516;2023-04-01T09:01:32;16.80;64.40
72905;DHT22;61048;52.162;4.516;2023-04-01T09:04:14;16.90;64.90
72905;DHT22;61048;52.162;4.516;2023-04-01T09:06:54;17.00;65.30
72905;DHT22;61048;52.162;4.516;2023-04-01T09:09:45;17.00;66.10
72905;DHT22;61048;52.162;4.516;2023-04-01T09:12:38;17.10;66.50
72905;DHT22;61048;52.162;4.516;2023-04-01T09:15:36;17.10;66.10
72905;DHT22;61048;52.162;4.516;2023-04-01T09:18:24;17.10;66.40
72905;DHT22;61048;52.162;4.516;2023-04-01T09:21:09;17.10;66.10
72905;DHT22;61048;52.162;4.516;2023-04-01T09:23:54;17.10;66.50
72905;DHT22;61048;52.162;4.516;2023-04-01T09:26:42;17.10;66.40
72905;DHT22;61048;52.162;4.516;2023-04-01T09:29:20;17.10;66.10
72905;DHT22;61048;52.162;4.516;2023-04-01T09:34:53;17.00;65.50
72905;DHT22;61048;52.162;4.516;2023-04-01T09:37:24;17.00;65.20
72905;DHT22;61048;52.162;4.516;2023-04-01T09:43:07;17.00;64.90
72905;DHT22;61048;52.162;4.516;2023-04-01T09:45:48;17.00;66.60
72905;DHT22;61048;52.162;4.516;2023-04-01T09:48:29;17.10;66.90
72905;DHT22;61048;52.162;4.516;2023-04-01T09:51:05;17.20;66.70
72905;DHT22;61048;52.162;4.516;2023-04-01T09:53:48;17.20;66.40
72905;DHT22;61048;52.162;4.516;2023-04-01T09:56:52;17.20;66.30
72905;DHT22;61048;52.162;4.516;2023-04-01T09:59:57;17.20;65.80
72905;DHT22;61048;52.162;4.516;2023-04-01T10:08:42;17.10;65.50
72905;DHT22;61048;52.162;4.516;2023-04-01T10:15:10;17.10;65.60
72905;DHT22;61048;52.162;4.516;2023-04-01T10:18:27;17.10;64.80
72905;DHT22;61048;52.162;4.516;2023-04-01T10:24:23;17.00;64.50
72905;DHT22;61048;52.162;4.516;2023-04-01T10:27:10;17.00;64.60
72905;DHT22;61048;52.162;4.516;2023-04-01T10:30:03;17.00;64.40
72905;DHT22;61048;52.162;4.516;2023-04-01T10:39:29;17.00;64.30
72905;DHT22;61048;52.162;4.516;2023-04-01T10:42:27;17.00;64.20
72905;DHT22;61048;52.162;4.516;2023-04-01T10:45:32;17.00;64.30
72905;DHT22;61048;52.162;4.516;2023-04-01T10:48:17;17.00;64.10
72905;DHT22;61048;52.162;4.516;2023-04-01T10:53:49;17.00;63.90
72905;DHT22;61048;52.162;4.516;2023-04-01T10:56:34;17.00;63.70
72905;DHT22;61048;52.162;4.516;2023-04-01T10:59:32;17.00;63.90
72905;DHT22;61048;52.162;4.516;2023-04-01T11:11:48;17.10;64.40
72905;DHT22;61048;52.162;4.516;2023-04-01T11:14:57;17.10;64.20
72905;DHT22;61048;52.162;4.516;2023-04-01T11:23:47;17.10;64.10
72905;DHT22;61048;52.162;4.516;2023-04-01T11:26:26;17.10;64.00
72905;DHT22;61048;52.162;4.516;2023-04-01T11:29:07;17.10;64.20
72905;DHT22;61048;52.162;4.516;2023-04-01T11:31:43;17.10;64.10
72905;DHT22;61048;52.162;4.516;2023-04-01T11:34:36;17.10;64.00
72905;DHT22;61048;52.162;4.516;2023-04-01T11:37:15;17.10;64.10
72905;DHT22;61048;52.162;4.516;2023-04-01T11:39:50;17.00;63.90
72905;DHT22;61048;52.162;4.516;2023-04-01T11:42:27;17.00;64.00
72905;DHT22;61048;52.162;4.516;2023-04-01T11:45:09;17.00;63.90
72905;DHT22;61048;52.162;4.516;2023-04-01T11:47:57;17.00;64.10
72905;DHT22;61048;52.162;4.516;2023-04-01T11:50:32;17.10;64.10
72905;DHT22;61048;52.162;4.516;2023-04-01T11:53:23;17.10;64.00
72905;DHT22;61048;52.162;4.516;2023-04-01T11:56:09;17.10;63.90
72905;DHT22;61048;52.162;4.516;2023-04-01T11:59:04;17.10;64.00
72905;DHT22;61048;52.162;4.516;2023-04-01T12:01:53;17.10;63.90
72905;DHT22;61048;52.162;4.516;2023-04-01T12:04:45;17.10;63.90
72905;DHT22;61048;52.162;4.516;2023-04-01T12:07:40;17.10;63.90
72905;DHT22;61048;52.162;4.516;2023-04-01T12:10:18;17.10;63.80
72905;DHT22;61048;52.162;4.516;2023-04-01T12:12:52;17.20;63.70
72905;DHT22;61048;52.162;4.516;2023-04-01T12:15:28;17.20;63.70
72905;DHT22;61048;52.162;4.516;2023-04-01T12:18:05;17.20;63.80
72905;DHT22;61048;52.162;4.516;2023-04-01T12:20:49;17.20;63.70
72905;DHT22;61048;52.162;4.516;2023-04-01T12:23:35;17.20;63.60
72905;DHT22;61048;52.162;4.516;2023-04-01T12:26:43;17.20;63.60
72905;DHT22;61048;52.162;4.516;2023-04-01T12:29:42;17.20;63.70
72905;DHT22;61048;52.162;4.516;2023-04-01T12:32:18;17.20;63.50
72905;DHT22;61048;52.162;4.516;2023-04-01T12:35:03;17.20;63.60
72905;DHT22;61048;52.162;4.516;2023-04-01T12:37:39;17.20;63.50
72905;DHT22;61048;52.162;4.516;2023-04-01T12:40:31;17.20;63.50
72905;DHT22;61048;52.162;4.516;2023-04-01T12:43:20;17.20;63.50
72905;DHT22;61048;52.162;4.516;2023-04-01T12:46:01;17.20;63.50
72905;DHT22;61048;52.162;4.516;2023-04-01T12:57:34;17.30;63.30
72905;DHT22;61048;52.162;4.516;2023-04-01T13:00:24;17.30;63.20
72905;DHT22;61048;52.162;4.516;2023-04-01T13:03:06;17.30;63.20
72905;DHT22;61048;52.162;4.516;2023-04-01T13:05:51;17.30;63.20
72905;DHT22;61048;52.162;4.516;2023-04-01T13:08:36;17.30;63.10
72905;DHT22;61048;52.162;4.516;2023-04-01T13:11:14;17.30;63.00
72905;DHT22;61048;52.162;4.516;2023-04-01T13:16:50;17.30;63.10
72905;DHT22;61048;52.162;4.516;2023-04-01T13:19:25;17.30;63.00
72905;DHT22;61048;52.162;4.516;2023-04-01T13:22:00;17.30;62.90
72905;DHT22;61048;52.162;4.516;2023-04-01T13:24:40;17.30;62.90
72905;DHT22;61048;52.162;4.516;2023-04-01T13:27:14;17.30;62.90
72905;DHT22;61048;52.162;4.516;2023-04-01T13:29:47;17.30;62.80
72905;DHT22;61048;52.162;4.516;2023-04-01T13:32:29;17.30;62.80
72905;DHT22;61048;52.162;4.516;2023-04-01T13:35:12;17.40;62.70
72905;DHT22;61048;52.162;4.516;2023-04-01T13:37:52;17.40;62.70
72905;DHT22;61048;52.162;4.516;2023-04-01T13:40:28;17.40;62.60
72905;DHT22;61048;52.162;4.516;2023-04-01T13:43:03;17.40;62.50
72905;DHT22;61048;52.162;4.516;2023-04-01T13:45:40;17.40;62.50
72905;DHT22;61048;52.162;4.516;2023-04-01T13:48:27;17.40;62.50
72905;DHT22;61048;52.162;4.516;2023-04-01T13:54:09;17.40;62.60
72905;DHT22;61048;52.162;4.516;2023-04-01T13:56:54;17.40;62.70
72905;DHT22;61048;52.162;4.516;2023-04-01T14:02:40;17.40;63.00
72905;DHT22;61048;52.162;4.516;2023-04-01T14:05:35;17.50;62.30
72905;DHT22;61048;52.162;4.516;2023-04-01T14:08:17;17.40;62.60
72905;DHT22;61048;52.162;4.516;2023-04-01T14:10:53;17.40;62.60
72905;DHT22;61048;52.162;4.516;2023-04-01T14:13:30;17.40;62.40
72905;DHT22;61048;52.162;4.516;2023-04-01T14:19:17;17.30;62.40
72905;DHT22;61048;52.162;4.516;2023-04-01T14:21:58;17.20;62.40
72905;DHT22;61048;52.162;4.516;2023-04-01T14:24:52;17.20;62.60
72905;DHT22;61048;52.162;4.516;2023-04-01T14:27:46;17.20;62.40
72905;DHT22;61048;52.162;4.516;2023-04-01T14:30:26;17.20;62.60
72905;DHT22;61048;52.162;4.516;2023-04-01T14:33:00;17.20;62.50
72905;DHT22;61048;52.162;4.516;2023-04-01T14:35:37;17.20;62.50
72905;DHT22;61048;52.162;4.516;2023-04-01T14:38:20;17.20;62.40
72905;DHT22;61048;52.162;4.516;2023-04-01T14:40:56;17.20;62.30
72905;DHT22;61048;52.162;4.516;2023-04-01T14:43:49;17.20;62.40
72905;DHT22;61048;52.162;4.516;2023-04-01T14:46:34;17.10;62.50
72905;DHT22;61048;52.162;4.516;2023-04-01T14:49:17;17.20;62.40
72905;DHT22;61048;52.162;4.516;2023-04-01T14:51:48;17.20;62.60
72905;DHT22;61048;52.162;4.516;2023-04-01T14:54:19;17.10;62.50
72905;DHT22;61048;52.162;4.516;2023-04-01T14:56:50;17.10;62.50
72905;DHT22;61048;52.162;4.516;2023-04-01T14:59:27;17.10;62.50
72905;DHT22;61048;52.162;4.516;2023-04-01T15:02:01;17.10;62.50
72905;DHT22;61048;52.162;4.516;2023-04-01T15:04:46;17.10;62.50
72905;DHT22;61048;52.162;4.516;2023-04-01T15:07:41;17.00;62.50
72905;DHT22;61048;52.162;4.516;2023-04-01T15:10:23;17.00;62.50
72905;DHT22;61048;52.162;4.516;2023-04-01T15:12:57;17.00;62.50
72905;DHT22;61048;52.162;4.516;2023-04-01T15:15:58;17.00;62.50
72905;DHT22;61048;52.162;4.516;2023-04-01T15:18:37;17.00;62.50
72905;DHT22;61048;52.162;4.516;2023-04-01T15:21:19;17.00;62.60
72905;DHT22;61048;52.162;4.516;2023-04-01T15:23:57;17.00;62.60
72905;DHT22;61048;52.162;4.516;2023-04-01T15:27:02;17.00;62.60
72905;DHT22;61048;52.162;4.516;2023-04-01T15:29:47;17.00;62.60
72905;DHT22;61048;52.162;4.516;2023-04-01T15:32:19;16.90;62.50
72905;DHT22;61048;52.162;4.516;2023-04-01T15:34:56;16.90;62.50
72905;DHT22;61048;52.162;4.516;2023-04-01T15:37:33;16.80;62.40
72905;DHT22;61048;52.162;4.516;2023-04-01T15:40:11;16.80;62.50
72905;DHT22;61048;52.162;4.516;2023-04-01T15:42:52;16.80;62.40
72905;DHT22;61048;52.162;4.516;2023-04-01T15:45:32;16.80;62.40
72905;DHT22;61048;52.162;4.516;2023-04-01T15:48:18;16.70;62.50
72905;DHT22;61048;52.162;4.516;2023-04-01T15:51:19;16.80;62.30
72905;DHT22;61048;52.162;4.516;2023-04-01T15:54:01;16.70;62.40
72905;DHT22;61048;52.162;4.516;2023-04-01T15:56:52;16.70;62.30
72905;DHT22;61048;52.162;4.516;2023-04-01T15:59:37;16.70;62.20
72905;DHT22;61048;52.162;4.516;2023-04-01T16:02:13;16.60;62.30
72905;DHT22;61048;52.162;4.516;2023-04-01T16:04:51;16.60;62.20
72905;DHT22;61048;52.162;4.516;2023-04-01T16:07:43;16.60;62.30
72905;DHT22;61048;52.162;4.516;2023-04-01T16:10:30;16.60;62.30
72905;DHT22;61048;52.162;4.516;2023-04-01T16:13:13;16.60;62.30
72905;DHT22;61048;52.162;4.516;2023-04-01T16:15:51;16.60;62.30
72905;DHT22;61048;52.162;4.516;2023-04-01T16:18:37;16.50;62.40
72905;DHT22;61048;52.162;4.516;2023-04-01T16:21:08;16.60;62.40
72905;DHT22;61048;52.162;4.516;2023-04-01T16:23:42;16.50;62.30
72905;DHT22;61048;52.162;4.516;2023-04-01T16:26:18;16.50;62.30
72905;DHT22;61048;52.162;4.516;2023-04-01T16:28:52;16.50;62.30
72905;DHT22;61048;52.162;4.516;2023-04-01T16:31:30;16.40;62.30
72905;DHT22;61048;52.162;4.516;2023-04-01T16:34:02;16.40;62.40
72905;DHT22;61048;52.162;4.516;2023-04-01T16:36:35;16.40;62.40
72905;DHT22;61048;52.162;4.516;2023-04-01T16:39:28;16.40;62.10
72905;DHT22;61048;52.162;4.516;2023-04-01T16:42:13;16.40;62.30
72905;DHT22;61048;52.162;4.516;2023-04-01T16:44:49;16.30;62.30
72905;DHT22;61048;52.162;4.516;2023-04-01T16:47:20;16.30;62.30
72905;DHT22;61048;52.162;4.516;2023-04-01T16:49:52;16.30;62.10
72905;DHT22;61048;52.162;4.516;2023-04-01T16:52:34;16.30;62.20
72905;DHT22;61048;52.162;4.516;2023-04-01T16:55:14;16.30;62.20
72905;DHT22;61048;52.162;4.516;2023-04-01T16:57:48;16.30;62.20
72905;DHT22;61048;52.162;4.516;2023-04-01T17:00:23;16.30;62.10
72905;DHT22;61048;52.162;4.516;2023-04-01T17:03:01;16.20;62.10
72905;DHT22;61048;52.162;4.516;2023-04-01T17:05:42;16.20;61.90
72905;DHT22;61048;52.162;4.516;2023-04-01T17:08:21;16.10;62.10
72905;DHT22;61048;52.162;4.516;2023-04-01T17:10:56;16.10;62.20
72905;DHT22;61048;52.162;4.516;2023-04-01T17:13:34;16.10;62.00
72905;DHT22;61048;52.162;4.516;2023-04-01T17:19:03;16.10;62.00
72905;DHT22;61048;52.162;4.516;2023-04-01T17:21:47;16.10;62.00
72905;DHT22;61048;52.162;4.516;2023-04-01T17:24:27;16.10;62.10
72905;DHT22;61048;52.162;4.516;2023-04-01T17:27:04;16.10;62.00
72905;DHT22;61048;52.162;4.516;2023-04-01T17:29:42;16.00;61.90
72905;DHT22;61048;52.162;4.516;2023-04-01T17:32:13;16.00;61.90
72905;DHT22;61048;52.162;4.516;2023-04-01T17:34:54;16.00;62.00
72905;DHT22;61048;52.162;4.516;2023-04-01T17:37:34;16.00;61.90
72905;DHT22;61048;52.162;4.516;2023-04-01T17:40:34;16.00;62.00
72905;DHT22;61048;52.162;4.516;2023-04-01T17:43:14;16.00;62.00
72905;DHT22;61048;52.162;4.516;2023-04-01T17:45:47;15.90;61.90